Huntley, Wyoming
Current Conditions -  °F | °C
As of 3:15 PM on Tuesday 25 Nov 2014 (Local Time) from KTOR Reporting Station
Light Rain Light Rain  
Wind Chill: 27°   Ceiling: 2500
Heat Index: 36°   Visibility: 10mi
Dew Point: 32°   Wind: 15mph
Humidity: 86%   Direction: 330°NNW
Pressure: 29.87"   Gusts: NA
Location:  41.93°N, 104.15°W
Report Text: KTOR 252215Z AUTO 33013KT 10SM -RA OVC025 02/00 A2987 RMK AO2 UPB00E03RAB03 P0000 T00220000
Loading
Personal Weather Stations






























Interactive Weather Map New forecast layout! Learn more

10-Day Weather Forecast

Advertisements
Track Severe Weather on mobile